This is the latest recevied weather packets stored in our database for station/object W0LTA. If no packets are shown the sender has not sent any weather packets the latest 10 day(s).
| Time | Temp. | Humidity | Pressure | Rain* | Wind** | Luminosity | Snow |
|---|---|---|---|---|---|---|---|
| 1777439072 | 9.44° C | 48% | 1021.3 hPa | 0 mm | - | - | - |
| 1777438772 | 9.44° C | 48% | 1021.2 hPa | 0 mm | - | - | - |
| 1777438469 | 9.44° C | 48% | 1021.1 hPa | 0 mm | - | - | - |
| 1777438166 | 9.44° C | 48% | 1021.1 hPa | 0 mm | - | - | - |
| 1777437873 | 9.44° C | 49% | 1021.1 hPa | 0 mm | - | - | - |
| 1777437576 | 9.44° C | 49% | 1021.1 hPa | 0 mm | - | - | - |
| 1777437277 | 8.89° C | 49% | 1021.1 hPa | 0 mm | - | - | - |
| 1777436984 | 8.89° C | 49% | 1021.1 hPa | 0 mm | - | - | - |
| 1777436691 | 8.89° C | 50% | 1021 hPa | 0 mm | - | - | - |
| 1777436092 | 8.89° C | 50% | 1020.8 hPa | 0 mm | - | - | - |
| 1777435791 | 8.89° C | 49% | 1020.7 hPa | 0 mm | - | - | - |
| 1777435183 | 9.44° C | 48% | 1020.5 hPa | 0 mm | - | - | - |
| 1777433970 | 9.44° C | 46% | 1020.3 hPa | 0 mm | - | - | - |
| 1777432788 | 10° C | 44% | 1019.8 hPa | 0 mm | - | - | - |
| 1777428573 | 13.33° C | 27% | 1018.2 hPa | 0 mm | - | - | - |
| 1777426477 | 13.89° C | 26% | 1017.3 hPa | 0 mm | - | - | - |
| 1777425575 | 15° C | 24% | 1017 hPa | 0 mm | - | - | - |
| 1777421990 | 16.67° C | 21% | 1016 hPa | 0 mm | - | - | - |
| 1777418986 | 15.56° C | 25% | 1015.8 hPa | 0 mm | - | - | - |
| 1777411780 | 13.89° C | 31% | 1016.1 hPa | 0 mm | - | - | - |
| 1777411196 | 14.44° C | 33% | 1016.2 hPa | 0 mm | - | - | - |
| 1777410897 | 13.33° C | 34% | 1016.3 hPa | 0 mm | - | - | - |
| 1777410593 | 13.33° C | 32% | 1016.3 hPa | 0 mm | - | - | - |
| 1777410286 | 13.89° C | 32% | 1016.3 hPa | 0 mm | - | - | - |
| 1777409684 | 14.44° C | 33% | 1016.3 hPa | 0 mm | - | - | - |
* Rain latest hour (hover to see other rain measurements)
** Current wind speed in m/s (hover to see current wind gust speed)